createdAt,value
2019-03-16T00:00:24.686Z,1003.05
2019-03-16T00:01:24.686Z,1003.12
2019-03-16T00:02:24.667Z,1003.17
2019-03-16T00:03:24.654Z,1003.16
2019-03-16T00:04:24.644Z,1003.19
2019-03-16T00:05:24.633Z,1003.17
2019-03-16T00:06:24.621Z,1003.22
2019-03-16T00:07:33.017Z,1003.07
2019-03-16T00:08:25.597Z,1003.11
2019-03-16T00:09:24.588Z,1003.13
2019-03-16T00:10:24.577Z,1003.15
2019-03-16T00:11:24.566Z,1003.19
2019-03-16T00:12:24.557Z,1003.23
2019-03-16T00:13:24.558Z,1003.15
2019-03-16T00:14:24.533Z,1003.20
2019-03-16T00:15:24.524Z,1003.21
2019-03-16T00:16:24.522Z,1003.14
2019-03-16T00:17:24.501Z,1003.17
2019-03-16T00:18:24.490Z,1003.17
2019-03-16T00:19:24.496Z,1003.20
2019-03-16T00:20:24.471Z,1003.26
2019-03-16T00:21:24.458Z,1003.28
2019-03-16T00:22:24.448Z,1003.27
2019-03-16T00:23:24.436Z,1003.28
2019-03-16T00:24:24.426Z,1003.35
2019-03-16T00:25:24.426Z,1003.38
2019-03-16T00:26:24.406Z,1003.38
2019-03-16T00:27:24.394Z,1003.39
2019-03-16T00:28:24.384Z,1003.45
2019-03-16T00:29:24.371Z,1003.47
2019-03-16T00:30:24.361Z,1003.42
2019-03-16T00:31:24.360Z,1003.40
2019-03-16T00:32:24.340Z,1003.38
2019-03-16T00:33:24.328Z,1003.45
2019-03-16T00:34:24.318Z,1003.49
2019-03-16T00:35:24.307Z,1003.54
2019-03-16T00:36:24.296Z,1003.57
2019-03-16T00:37:24.295Z,1003.57
2019-03-16T00:38:24.275Z,1003.50
2019-03-16T00:39:24.264Z,1003.53
2019-03-16T00:40:24.252Z,1003.49
2019-03-16T00:41:24.246Z,1003.47
2019-03-16T00:42:24.235Z,1003.46
2019-03-16T00:43:24.235Z,1003.42
2019-03-16T00:44:24.221Z,1003.45
2019-03-16T00:45:24.199Z,1003.40
2019-03-16T00:46:24.185Z,1003.42
2019-03-16T00:47:24.184Z,1003.40
2019-03-16T00:48:24.166Z,1003.35
2019-03-16T00:49:24.165Z,1003.35
2019-03-16T00:50:24.143Z,1003.37
2019-03-16T00:51:24.131Z,1003.35
2019-03-16T00:52:24.120Z,1003.46
2019-03-16T00:53:24.110Z,1003.53
2019-03-16T00:54:24.099Z,1003.62
2019-03-16T00:55:24.100Z,1003.65
2019-03-16T00:56:24.077Z,1003.68
2019-03-16T00:57:24.068Z,1003.62
2019-03-16T00:58:24.054Z,1003.54
2019-03-16T00:59:24.043Z,1003.47
2019-03-16T01:00:24.032Z,1003.46
2019-03-16T01:01:24.070Z,1003.43
2019-03-16T01:02:27.478Z,1003.45
2019-03-16T01:03:24.010Z,1003.44
2019-03-16T01:04:23.991Z,1003.40
2019-03-16T01:05:23.982Z,1003.44
2019-03-16T01:06:23.967Z,1003.39
2019-03-16T01:07:23.970Z,1003.43
2019-03-16T01:08:23.946Z,1003.44
2019-03-16T01:09:23.938Z,1003.44
2019-03-16T01:10:23.923Z,1003.46
2019-03-16T01:11:23.913Z,1003.51
2019-03-16T01:12:23.901Z,1003.55
2019-03-16T01:13:23.906Z,1003.60
2019-03-16T01:14:23.887Z,1003.57
2019-03-16T01:15:23.870Z,1003.56
2019-03-16T01:16:23.859Z,1003.51
2019-03-16T01:17:23.847Z,1003.50
2019-03-16T01:18:23.837Z,1003.43
2019-03-16T01:19:23.847Z,1003.46
2019-03-16T01:20:23.815Z,1003.44
2019-03-16T01:21:23.806Z,1003.51
2019-03-16T01:22:23.796Z,1003.56
2019-03-16T01:23:23.783Z,1003.56
2019-03-16T01:24:23.772Z,1003.60
2019-03-16T01:25:23.773Z,1003.61
2019-03-16T01:26:23.752Z,1003.61
2019-03-16T01:27:23.740Z,1003.63
2019-03-16T01:28:23.738Z,1003.63
2019-03-16T01:29:23.718Z,1003.59
2019-03-16T01:30:23.707Z,1003.62
2019-03-16T01:31:23.711Z,1003.58
2019-03-16T01:32:23.688Z,1003.60
2019-03-16T01:33:23.674Z,1003.67
2019-03-16T01:34:23.664Z,1003.69
2019-03-16T01:35:23.654Z,1003.67
2019-03-16T01:36:23.643Z,1003.70
2019-03-16T01:37:23.643Z,1003.76
2019-03-16T01:38:23.621Z,1003.69
2019-03-16T01:39:23.609Z,1003.75
2019-03-16T01:40:23.614Z,1003.67
2019-03-16T01:41:23.588Z,1003.67
2019-03-16T01:42:23.584Z,1003.64
2019-03-16T01:43:23.580Z,1003.68
2019-03-16T01:44:23.555Z,1003.72
2019-03-16T01:45:23.550Z,1003.83
2019-03-16T01:46:23.536Z,1003.77
2019-03-16T01:47:23.530Z,1003.68
2019-03-16T01:48:23.511Z,1003.70
2019-03-16T01:49:23.512Z,1003.64
2019-03-16T01:50:23.490Z,1003.59
2019-03-16T01:51:23.478Z,1003.57
2019-03-16T01:52:23.471Z,1003.59
2019-03-16T01:53:23.464Z,1003.63
2019-03-16T01:54:23.444Z,1003.61
2019-03-16T01:55:23.447Z,1003.60
2019-03-16T01:56:23.427Z,1003.56
2019-03-16T01:57:23.412Z,1003.56
2019-03-16T01:58:23.402Z,1003.66
2019-03-16T01:59:23.392Z,1003.72
2019-03-16T02:00:23.388Z,1003.63
2019-03-16T02:01:23.380Z,1003.64
2019-03-16T02:02:23.358Z,1003.63
2019-03-16T02:03:23.347Z,1003.62
2019-03-16T02:04:23.335Z,1003.61
2019-03-16T02:05:23.326Z,1003.58
2019-03-16T02:06:23.314Z,1003.50
2019-03-16T02:07:23.314Z,1003.58
2019-03-16T02:08:23.293Z,1003.56
2019-03-16T02:09:23.280Z,1003.55
2019-03-16T02:10:23.269Z,1003.53
2019-03-16T02:11:23.264Z,1003.50
2019-03-16T02:12:23.248Z,1003.51
2019-03-16T02:13:23.252Z,1003.54
2019-03-16T02:14:23.228Z,1003.60
2019-03-16T02:15:23.279Z,1003.64
2019-03-16T02:16:23.204Z,1003.68
2019-03-16T02:17:23.193Z,1003.65
2019-03-16T02:18:23.183Z,1003.68
2019-03-16T02:19:23.181Z,1003.69
2019-03-16T02:20:23.160Z,1003.77
2019-03-16T02:21:23.156Z,1003.73
2019-03-16T02:22:23.145Z,1003.73
2019-03-16T02:23:23.128Z,1003.73
2019-03-16T02:24:23.117Z,1003.78
2019-03-16T02:25:23.121Z,1003.80
2019-03-16T02:26:23.099Z,1003.85
2019-03-16T02:27:23.089Z,1003.81
2019-03-16T02:28:23.072Z,1003.82
2019-03-16T02:29:23.062Z,1003.83
2019-03-16T02:30:23.051Z,1003.87
2019-03-16T02:31:23.051Z,1003.92
2019-03-16T02:32:23.029Z,1003.94
2019-03-16T02:33:23.018Z,1003.93
2019-03-16T02:34:23.007Z,1003.89
2019-03-16T02:35:22.996Z,1003.85
2019-03-16T02:36:22.996Z,1003.88
2019-03-16T02:37:22.984Z,1003.85
2019-03-16T02:38:22.964Z,1003.96
2019-03-16T02:39:22.955Z,1003.94
2019-03-16T02:40:22.947Z,1004.00
2019-03-16T02:41:22.931Z,1004.01
2019-03-16T02:42:22.920Z,1004.01
2019-03-16T02:43:22.946Z,1004.06
2019-03-16T02:44:22.910Z,1004.03
2019-03-16T02:45:22.887Z,1004.04
2019-03-16T02:46:22.877Z,1004.06
2019-03-16T02:47:22.868Z,1004.10
2019-03-16T02:48:22.859Z,1004.11
2019-03-16T02:49:22.859Z,1004.09
2019-03-16T02:50:22.831Z,1004.08
2019-03-16T02:51:22.822Z,1004.11
2019-03-16T02:52:22.809Z,1004.13
2019-03-16T02:53:22.800Z,1004.09
2019-03-16T02:54:22.789Z,1004.12
2019-03-16T02:55:22.797Z,1004.10
2019-03-16T02:56:22.775Z,1004.15
2019-03-16T02:57:22.758Z,1004.14
2019-03-16T02:58:22.745Z,1004.16
2019-03-16T02:59:22.735Z,1004.16
2019-03-16T03:00:22.726Z,1004.10
2019-03-16T03:01:22.722Z,1004.14
2019-03-16T03:02:22.701Z,1004.13
2019-03-16T03:03:29.520Z,1004.10
2019-03-16T03:04:23.683Z,1004.16
2019-03-16T03:05:22.669Z,1004.14
2019-03-16T03:06:22.657Z,1004.10
2019-03-16T03:07:22.658Z,1004.11
2019-03-16T03:08:22.645Z,1004.09
2019-03-16T03:09:22.624Z,1004.11
2019-03-16T03:10:22.612Z,1004.14
2019-03-16T03:11:22.603Z,1004.12
2019-03-16T03:12:22.599Z,1004.13
2019-03-16T03:13:22.591Z,1004.07
2019-03-16T03:14:22.572Z,1004.09
2019-03-16T03:15:22.564Z,1004.12
2019-03-16T03:16:22.549Z,1004.12
2019-03-16T03:17:22.537Z,1004.15
2019-03-16T03:18:22.525Z,1004.14
2019-03-16T03:19:22.532Z,1004.17
2019-03-16T03:20:22.504Z,1004.17
2019-03-16T03:21:22.494Z,1004.19
2019-03-16T03:22:22.481Z,1004.12
2019-03-16T03:23:22.470Z,1004.13
2019-03-16T03:24:22.459Z,1004.10
2019-03-16T03:25:22.466Z,1004.09
2019-03-16T03:26:22.443Z,1004.11
2019-03-16T03:27:22.427Z,1004.15
2019-03-16T03:28:22.445Z,1004.18
2019-03-16T03:29:22.408Z,1004.15
2019-03-16T03:30:22.429Z,1004.15
2019-03-16T03:31:22.400Z,1004.14
2019-03-16T03:32:22.382Z,1004.11
2019-03-16T03:33:22.369Z,1004.17
2019-03-16T03:34:22.359Z,1004.11
2019-03-16T03:35:22.343Z,1004.15
2019-03-16T03:36:22.329Z,1004.12
2019-03-16T03:37:22.328Z,1004.10
2019-03-16T03:38:22.308Z,1004.12
2019-03-16T03:39:22.303Z,1004.12
2019-03-16T03:40:22.287Z,1004.07
2019-03-16T03:41:22.274Z,1004.08
2019-03-16T03:42:22.264Z,1004.14
2019-03-16T03:43:22.272Z,1004.09
2019-03-16T03:44:22.249Z,1004.10
2019-03-16T03:45:22.236Z,1004.05
2019-03-16T03:46:22.219Z,1004.10
2019-03-16T03:47:22.209Z,1004.06
2019-03-16T03:48:22.209Z,1004.10
2019-03-16T03:49:22.205Z,1004.14
2019-03-16T03:50:22.175Z,1004.09
2019-03-16T03:51:22.170Z,1004.14
2019-03-16T03:52:22.162Z,1004.17
2019-03-16T03:53:22.143Z,1004.16
2019-03-16T03:54:22.132Z,1004.11
2019-03-16T03:55:22.138Z,1004.13
2019-03-16T03:56:22.113Z,1004.18
2019-03-16T03:57:22.098Z,1004.20
2019-03-16T03:58:22.088Z,1004.20
2019-03-16T03:59:22.080Z,1004.21
2019-03-16T04:00:22.066Z,1004.24
2019-03-16T04:01:22.066Z,1004.20
2019-03-16T04:02:22.046Z,1004.24
2019-03-16T04:03:22.034Z,1004.20
2019-03-16T04:04:22.023Z,1004.19
2019-03-16T04:05:22.012Z,1004.18
2019-03-16T04:06:21.999Z,1004.20
2019-03-16T04:07:22.000Z,1004.22
2019-03-16T04:08:21.978Z,1004.24
2019-03-16T04:09:21.971Z,1004.28
2019-03-16T04:10:21.959Z,1004.29
2019-03-16T04:11:21.945Z,1004.30
2019-03-16T04:12:21.934Z,1004.30
2019-03-16T04:13:21.941Z,1004.26
2019-03-16T04:14:21.916Z,1004.28
2019-03-16T04:15:21.902Z,1004.26
2019-03-16T04:16:21.890Z,1004.25
2019-03-16T04:17:21.879Z,1004.33
2019-03-16T04:18:21.870Z,1004.31
2019-03-16T04:19:21.872Z,1004.20
2019-03-16T04:20:21.852Z,1004.25
2019-03-16T04:21:21.837Z,1004.29
2019-03-16T04:22:21.836Z,1004.26
2019-03-16T04:23:21.815Z,1004.32
2019-03-16T04:24:21.804Z,1004.18
2019-03-16T04:25:21.809Z,1004.18
2019-03-16T04:26:21.876Z,1004.16
2019-03-16T04:27:21.772Z,1004.23
2019-03-16T04:28:21.759Z,1004.14
2019-03-16T04:29:21.749Z,1004.23
2019-03-16T04:30:21.741Z,1004.22
2019-03-16T04:31:21.737Z,1004.15
2019-03-16T04:32:21.717Z,1004.09
2019-03-16T04:33:21.706Z,1004.20
2019-03-16T04:34:29.144Z,1004.20
2019-03-16T04:35:22.689Z,1004.16
2019-03-16T04:36:21.673Z,1004.20
2019-03-16T04:37:21.673Z,1004.18
2019-03-16T04:38:21.652Z,1004.24
2019-03-16T04:39:21.641Z,1004.23
2019-03-16T04:40:21.629Z,1004.21
2019-03-16T04:41:21.619Z,1004.15
2019-03-16T04:42:21.607Z,1004.19
2019-03-16T04:43:21.610Z,1004.18
2019-03-16T04:44:21.589Z,1004.18
2019-03-16T04:45:21.591Z,1004.22
2019-03-16T04:46:21.562Z,1004.19
2019-03-16T04:47:21.555Z,1004.24
2019-03-16T04:48:21.540Z,1004.21
2019-03-16T04:49:21.546Z,1004.22
2019-03-16T04:50:21.519Z,1004.19
2019-03-16T04:51:21.509Z,1004.20
2019-03-16T04:52:21.496Z,1004.21
2019-03-16T04:53:21.486Z,1004.24
2019-03-16T04:54:21.475Z,1004.21
2019-03-16T04:55:21.477Z,1004.14
2019-03-16T04:56:21.452Z,1004.11
2019-03-16T04:57:21.442Z,1004.08
2019-03-16T04:58:21.431Z,1004.06
2019-03-16T04:59:21.420Z,1004.07
2019-03-16T05:00:21.409Z,1004.03
2019-03-16T05:01:21.409Z,1004.02
2019-03-16T05:02:21.389Z,1004.09
2019-03-16T05:03:21.379Z,1004.06
2019-03-16T05:04:21.365Z,1004.11
2019-03-16T05:05:21.423Z,1004.17
2019-03-16T05:06:21.351Z,1004.17
2019-03-16T05:07:21.344Z,1004.08
2019-03-16T05:08:21.322Z,1004.10
2019-03-16T05:09:21.310Z,1004.09
2019-03-16T05:10:21.299Z,1004.07
2019-03-16T05:11:21.290Z,1004.02
2019-03-16T05:12:21.282Z,1004.07
2019-03-16T05:13:21.281Z,1004.09
2019-03-16T05:14:21.258Z,1004.06
2019-03-16T05:15:21.246Z,1004.06
2019-03-16T05:16:21.234Z,1004.03
2019-03-16T05:17:21.223Z,1003.99
2019-03-16T05:18:21.213Z,1003.97
2019-03-16T05:19:21.211Z,1003.96
2019-03-16T05:20:21.190Z,1003.91
2019-03-16T05:21:21.180Z,1003.89
2019-03-16T05:22:21.168Z,1003.85
2019-03-16T05:23:21.158Z,1003.90
2019-03-16T05:24:21.146Z,1003.98
2019-03-16T05:25:21.146Z,1003.95
2019-03-16T05:26:21.124Z,1003.91
2019-03-16T05:27:21.114Z,1003.95
2019-03-16T05:28:21.105Z,1004.01
2019-03-16T05:29:21.097Z,1003.94
2019-03-16T05:30:21.082Z,1003.97
2019-03-16T05:31:21.083Z,1004.00
2019-03-16T05:32:21.059Z,1004.00
2019-03-16T05:33:21.049Z,1003.96
2019-03-16T05:34:21.041Z,1003.94
2019-03-16T05:35:21.028Z,1003.99
2019-03-16T05:36:21.265Z,1003.96
2019-03-16T05:37:21.026Z,1004.03
2019-03-16T05:38:20.995Z,1004.01
2019-03-16T05:39:20.984Z,1004.06
2019-03-16T05:40:20.975Z,1004.05
2019-03-16T05:41:20.963Z,1003.98
2019-03-16T05:42:20.952Z,1003.97
2019-03-16T05:43:20.951Z,1003.97
2019-03-16T05:44:20.930Z,1004.04
2019-03-16T05:45:20.919Z,1004.06
2019-03-16T05:46:20.908Z,1004.08
2019-03-16T05:47:20.898Z,1004.10
2019-03-16T05:48:20.889Z,1004.13
2019-03-16T05:49:20.899Z,1004.13
2019-03-16T05:50:20.869Z,1004.10
2019-03-16T05:51:20.856Z,1004.02
2019-03-16T05:52:20.876Z,1004.08
2019-03-16T05:53:20.836Z,1004.05
2019-03-16T05:54:20.825Z,1004.03
2019-03-16T05:55:20.828Z,1004.05
2019-03-16T05:56:20.803Z,1004.02
2019-03-16T05:57:20.791Z,1004.03
2019-03-16T05:58:20.781Z,1004.02
2019-03-16T05:59:20.773Z,1004.01
2019-03-16T06:00:20.760Z,1003.95
2019-03-16T06:01:20.761Z,1004.01
2019-03-16T06:02:20.739Z,1004.02
2019-03-16T06:03:20.728Z,1003.99
2019-03-16T06:04:20.718Z,1004.00
2019-03-16T06:05:20.730Z,1004.02
2019-03-16T06:06:20.698Z,1003.97
2019-03-16T06:07:20.714Z,1004.00
2019-03-16T06:08:20.675Z,1003.96
2019-03-16T06:09:20.664Z,1003.96
2019-03-16T06:10:20.654Z,1003.98
2019-03-16T06:11:20.643Z,1004.01
2019-03-16T06:12:20.639Z,1003.97
2019-03-16T06:13:20.634Z,1003.92
2019-03-16T06:14:20.619Z,1003.91
2019-03-16T06:15:20.601Z,1003.94
2019-03-16T06:16:20.590Z,1003.90
2019-03-16T06:17:20.582Z,1003.84
2019-03-16T06:18:20.569Z,1003.90
2019-03-16T06:19:20.569Z,1003.86
2019-03-16T06:20:20.549Z,1003.86
2019-03-16T06:21:20.539Z,1003.84
2019-03-16T06:22:20.526Z,1003.81
2019-03-16T06:23:20.517Z,1003.82
2019-03-16T06:24:20.505Z,1003.81
2019-03-16T06:25:20.515Z,1003.84
2019-03-16T06:26:20.484Z,1003.78
2019-03-16T06:27:20.473Z,1003.90
2019-03-16T06:28:20.489Z,1003.84
2019-03-16T06:29:20.451Z,1003.81
2019-03-16T06:30:21.025Z,1003.81
2019-03-16T06:31:20.440Z,1003.84
2019-03-16T06:32:20.419Z,1003.80
2019-03-16T06:33:20.411Z,1003.75
2019-03-16T06:34:20.400Z,1003.77
2019-03-16T06:35:24.910Z,1003.72
2019-03-16T06:36:21.387Z,1003.79
2019-03-16T06:37:20.365Z,1003.80
2019-03-16T06:38:20.360Z,1003.79
2019-03-16T06:39:20.343Z,1003.79
2019-03-16T06:40:20.337Z,1003.78
2019-03-16T06:41:20.323Z,1003.73
2019-03-16T06:42:20.338Z,1003.67
2019-03-16T06:43:20.300Z,1003.68
2019-03-16T06:44:20.290Z,1003.60
2019-03-16T06:45:20.279Z,1003.63
2019-03-16T06:46:20.267Z,1003.62
2019-03-16T06:47:23.036Z,1003.60
2019-03-16T06:48:20.322Z,1003.47
2019-03-16T06:49:20.234Z,1003.39
2019-03-16T06:50:20.225Z,1003.37
2019-03-16T06:51:20.212Z,1003.31
2019-03-16T06:52:20.204Z,1003.26
2019-03-16T06:53:20.197Z,1003.25
2019-03-16T06:54:20.190Z,1003.28
2019-03-16T06:55:20.168Z,1003.32
2019-03-16T06:56:20.162Z,1003.34
2019-03-16T06:57:20.148Z,1003.30
2019-03-16T06:58:20.137Z,1003.35
2019-03-16T06:59:20.125Z,1003.37
2019-03-16T07:00:20.138Z,1003.33
2019-03-16T07:01:20.115Z,1003.29
2019-03-16T07:02:20.103Z,1003.26
2019-03-16T07:03:20.081Z,1003.26
2019-03-16T07:04:20.070Z,1003.24
2019-03-16T07:05:23.511Z,1003.21
2019-03-16T07:06:21.059Z,1003.25
2019-03-16T07:07:20.037Z,1003.22
2019-03-16T07:08:20.026Z,1003.20
2019-03-16T07:09:20.018Z,1003.17
2019-03-16T07:10:20.003Z,1003.13
2019-03-16T07:11:19.993Z,1003.10
2019-03-16T07:12:19.993Z,1003.14
2019-03-16T07:13:19.973Z,1003.05
2019-03-16T07:14:19.960Z,1003.12
2019-03-16T07:15:19.957Z,1003.09
2019-03-16T07:16:19.940Z,1003.07
2019-03-16T07:17:19.931Z,1003.07
2019-03-16T07:18:19.931Z,1003.08
2019-03-16T07:19:19.973Z,1003.11
2019-03-16T07:20:19.896Z,1003.08
2019-03-16T07:21:19.885Z,1003.09
2019-03-16T07:22:19.876Z,1003.06
2019-03-16T07:23:19.920Z,1003.09
2019-03-16T07:24:19.864Z,1003.06
2019-03-16T07:25:19.841Z,1003.06
2019-03-16T07:26:19.829Z,1003.05
2019-03-16T07:27:25.979Z,1003.04
2019-03-16T07:28:20.808Z,1003.01
2019-03-16T07:29:19.797Z,1002.91
2019-03-16T07:30:19.797Z,1002.95
2019-03-16T07:31:19.775Z,1002.90
2019-03-16T07:32:19.766Z,1002.86
2019-03-16T07:33:19.755Z,1002.86
2019-03-16T07:34:19.744Z,1002.93
2019-03-16T07:35:19.733Z,1002.91
2019-03-16T07:36:19.797Z,1002.85
2019-03-16T07:37:19.710Z,1002.83
2019-03-16T07:38:19.699Z,1002.87
2019-03-16T07:39:19.996Z,1002.90
2019-03-16T07:40:19.679Z,1002.85
2019-03-16T07:41:19.667Z,1002.82
2019-03-16T07:42:19.675Z,1002.76
2019-03-16T07:43:19.669Z,1002.82
2019-03-16T07:44:19.637Z,1002.86
2019-03-16T07:45:19.626Z,1002.81
2019-03-16T07:46:19.624Z,1002.79
2019-03-16T07:47:19.604Z,1002.80
2019-03-16T07:48:19.605Z,1002.80
2019-03-16T07:49:19.582Z,1002.85
2019-03-16T07:50:19.572Z,1002.88
2019-03-16T07:51:19.561Z,1002.91
2019-03-16T07:52:19.551Z,1002.83
2019-03-16T07:53:19.539Z,1002.83
2019-03-16T07:54:19.539Z,1002.89
2019-03-16T07:55:19.520Z,1002.86
2019-03-16T07:56:19.508Z,1002.87
2019-03-16T07:57:19.498Z,1002.89
2019-03-16T07:58:19.486Z,1002.94
2019-03-16T07:59:19.475Z,1002.91
2019-03-16T08:00:19.476Z,1002.86
2019-03-16T08:01:19.456Z,1002.87
2019-03-16T08:02:19.446Z,1002.93
2019-03-16T08:03:19.435Z,1002.87
2019-03-16T08:04:19.424Z,1002.87
2019-03-16T08:05:19.569Z,1002.86
2019-03-16T08:06:19.411Z,1002.83
2019-03-16T08:07:19.394Z,1002.83
2019-03-16T08:08:19.381Z,1002.80
2019-03-16T08:09:19.399Z,1002.75
2019-03-16T08:10:19.357Z,1002.78
2019-03-16T08:11:19.345Z,1002.77
2019-03-16T08:12:19.348Z,1002.69
2019-03-16T08:13:19.326Z,1002.61
2019-03-16T08:14:19.314Z,1002.58
2019-03-16T08:15:19.306Z,1002.52
2019-03-16T08:16:19.293Z,1002.51
2019-03-16T08:17:19.281Z,1002.59
2019-03-16T08:18:19.282Z,1002.50
2019-03-16T08:19:19.260Z,1002.46
2019-03-16T08:20:19.248Z,1002.45
2019-03-16T08:21:19.237Z,1002.49
2019-03-16T08:22:19.227Z,1002.43
2019-03-16T08:23:19.216Z,1002.42
2019-03-16T08:24:19.216Z,1002.46
2019-03-16T08:25:19.195Z,1002.38
2019-03-16T08:26:19.186Z,1002.37
2019-03-16T08:27:19.173Z,1002.35
2019-03-16T08:28:19.164Z,1002.36
2019-03-16T08:29:19.160Z,1002.31
2019-03-16T08:30:19.151Z,1002.33
2019-03-16T08:31:19.133Z,1002.30
2019-03-16T08:32:19.119Z,1002.30
2019-03-16T08:33:19.110Z,1002.25
2019-03-16T08:34:19.098Z,1002.19
2019-03-16T08:35:19.089Z,1002.21
2019-03-16T08:36:19.088Z,1002.15
2019-03-16T08:37:19.066Z,1002.16
2019-03-16T08:38:19.055Z,1002.15
2019-03-16T08:39:19.043Z,1002.08
2019-03-16T08:40:19.043Z,1002.03
2019-03-16T08:41:19.021Z,1002.01
2019-03-16T08:42:19.034Z,1002.05
2019-03-16T08:43:19.001Z,1002.04
2019-03-16T08:44:18.989Z,1002.08
2019-03-16T08:45:18.980Z,1002.01
2019-03-16T08:46:18.966Z,1001.98
2019-03-16T08:47:18.955Z,1002.01
2019-03-16T08:48:23.137Z,1001.92
2019-03-16T08:49:18.935Z,1001.94
2019-03-16T08:50:18.924Z,1001.98
2019-03-16T08:51:18.916Z,1001.94
2019-03-16T08:52:18.902Z,1001.83
2019-03-16T08:53:18.910Z,1001.88
2019-03-16T08:54:18.898Z,1001.78
2019-03-16T08:55:18.869Z,1001.81
2019-03-16T08:56:18.869Z,1001.82
2019-03-16T08:57:18.848Z,1001.82
2019-03-16T08:58:18.836Z,1001.81
2019-03-16T08:59:18.825Z,1001.73
2019-03-16T09:00:18.829Z,1001.73
2019-03-16T09:01:18.805Z,1001.67
2019-03-16T09:02:18.797Z,1001.68
2019-03-16T09:03:18.782Z,1001.65
2019-03-16T09:04:18.770Z,1001.68
2019-03-16T09:05:18.769Z,1001.61
2019-03-16T09:06:18.765Z,1001.64
2019-03-16T09:07:18.738Z,1001.64
2019-03-16T09:08:18.726Z,1001.67
2019-03-16T09:09:18.715Z,1001.65
2019-03-16T09:10:18.704Z,1001.63
2019-03-16T09:11:18.695Z,1001.69
2019-03-16T09:12:18.692Z,1001.58
2019-03-16T09:13:18.682Z,1001.57
2019-03-16T09:14:18.662Z,1001.57
2019-03-16T09:15:18.649Z,1001.56
2019-03-16T09:16:18.639Z,1001.51
2019-03-16T09:17:18.628Z,1001.62
2019-03-16T09:18:18.628Z,1001.53
2019-03-16T09:19:18.613Z,1001.47
2019-03-16T09:20:18.599Z,1001.47
2019-03-16T09:21:18.586Z,1001.57
2019-03-16T09:22:18.577Z,1001.53
2019-03-16T09:23:18.564Z,1001.51
2019-03-16T09:24:18.577Z,1001.53
2019-03-16T09:25:18.616Z,1001.46
2019-03-16T09:26:18.532Z,1001.46
2019-03-16T09:27:30.331Z,1001.43
2019-03-16T09:28:19.514Z,1001.48
2019-03-16T09:29:18.500Z,1001.44
2019-03-16T09:30:18.503Z,1001.48
2019-03-16T09:31:18.478Z,1001.33
2019-03-16T09:32:18.468Z,1001.41
2019-03-16T09:33:18.541Z,1001.40
2019-03-16T09:34:18.446Z,1001.46
2019-03-16T09:35:18.435Z,1001.38
2019-03-16T09:36:18.447Z,1001.36
2019-03-16T09:37:18.419Z,1001.36
2019-03-16T09:38:18.402Z,1001.38
2019-03-16T09:39:18.393Z,1001.32
2019-03-16T09:40:18.380Z,1001.32
2019-03-16T09:41:18.373Z,1001.38
2019-03-16T09:42:18.374Z,1001.30
2019-03-16T09:43:18.347Z,1001.40
2019-03-16T09:44:18.399Z,1001.42
2019-03-16T09:45:18.325Z,1001.37
2019-03-16T09:46:18.314Z,1001.31
2019-03-16T09:47:18.304Z,1001.32
2019-03-16T09:48:18.315Z,1001.31
2019-03-16T09:49:18.282Z,1001.31
2019-03-16T09:50:18.272Z,1001.23
2019-03-16T09:51:18.261Z,1001.28
2019-03-16T09:52:18.251Z,1001.27
2019-03-16T09:53:18.240Z,1001.25
2019-03-16T09:54:18.254Z,1001.23
2019-03-16T09:55:18.220Z,1001.25
2019-03-16T09:56:18.208Z,1001.18
2019-03-16T09:57:18.203Z,1001.20
2019-03-16T09:58:30.480Z,1001.13
2019-03-16T09:59:19.189Z,1001.17
2019-03-16T10:00:18.167Z,1001.16
2019-03-16T10:01:18.156Z,1001.04
2019-03-16T10:02:18.143Z,1001.16
2019-03-16T10:03:18.133Z,1001.07
2019-03-16T10:04:18.121Z,1001.03
2019-03-16T10:05:18.125Z,1000.98
2019-03-16T10:06:18.100Z,1000.98
2019-03-16T10:07:18.089Z,1000.98
2019-03-16T10:08:19.328Z,1000.97
2019-03-16T10:09:18.067Z,1000.93
2019-03-16T10:10:18.057Z,1000.93
2019-03-16T10:11:18.062Z,1000.93
2019-03-16T10:12:18.045Z,1000.91
2019-03-16T10:13:18.043Z,1000.96
2019-03-16T10:14:18.013Z,1001.05
2019-03-16T10:15:18.003Z,1000.97
2019-03-16T10:16:17.995Z,1000.97
2019-03-16T10:17:17.991Z,1000.94
2019-03-16T10:18:17.970Z,1000.97
2019-03-16T10:19:17.958Z,1000.91
2019-03-16T10:20:17.947Z,1000.98
2019-03-16T10:21:18.948Z,1000.98
2019-03-16T10:22:17.927Z,1000.97
2019-03-16T10:23:17.930Z,1001.06
2019-03-16T10:24:17.904Z,1000.97
2019-03-16T10:25:17.892Z,1000.98
2019-03-16T10:26:17.881Z,1000.97
2019-03-16T10:27:17.870Z,1000.97
2019-03-16T10:28:17.859Z,1000.92
2019-03-16T10:29:17.877Z,1000.95
2019-03-16T10:30:17.837Z,1000.98
2019-03-16T10:31:17.826Z,1000.91
2019-03-16T10:32:17.817Z,1000.98
2019-03-16T10:33:17.810Z,1000.87
2019-03-16T10:34:17.796Z,1000.93
2019-03-16T10:35:17.794Z,1000.90
2019-03-16T10:36:17.770Z,1000.93
2019-03-16T10:37:17.759Z,1000.89
2019-03-16T10:38:17.749Z,1000.93
2019-03-16T10:39:17.738Z,1000.91
2019-03-16T10:40:17.726Z,1000.98
2019-03-16T10:41:17.728Z,1000.85
2019-03-16T10:42:17.706Z,1000.92
2019-03-16T10:43:17.695Z,1000.94
2019-03-16T10:44:17.682Z,1000.94
2019-03-16T10:45:17.675Z,1000.93
2019-03-16T10:46:17.661Z,1000.91
2019-03-16T10:47:17.661Z,1000.96
2019-03-16T10:48:17.639Z,1001.01
2019-03-16T10:49:17.627Z,1000.94
2019-03-16T10:50:17.616Z,1000.99
2019-03-16T10:51:17.606Z,1000.97
2019-03-16T10:52:17.594Z,1000.92
2019-03-16T10:53:17.598Z,1000.96
2019-03-16T10:54:17.572Z,1000.97
2019-03-16T10:55:17.562Z,1001.00
2019-03-16T10:56:17.556Z,1000.90
2019-03-16T10:57:17.542Z,1001.07
2019-03-16T10:58:17.555Z,1000.95
2019-03-16T10:59:17.752Z,1001.08
2019-03-16T11:00:17.512Z,1001.05
2019-03-16T11:01:17.495Z,1001.04
2019-03-16T11:02:17.486Z,1000.99
2019-03-16T11:03:17.475Z,1001.02
2019-03-16T11:04:17.466Z,1001.06
2019-03-16T11:05:17.464Z,1001.04
2019-03-16T11:06:17.440Z,1001.02
2019-03-16T11:07:17.428Z,1001.08
2019-03-16T11:08:17.418Z,1001.03
2019-03-16T11:09:17.408Z,1001.04
2019-03-16T11:10:17.406Z,1001.05
2019-03-16T11:11:17.395Z,1001.03
2019-03-16T11:12:17.375Z,1001.07
2019-03-16T11:13:17.363Z,1001.03
2019-03-16T11:14:17.352Z,1001.03
2019-03-16T11:15:17.340Z,1000.97
2019-03-16T11:16:17.343Z,1000.88
2019-03-16T11:17:17.332Z,1000.86
2019-03-16T11:18:17.307Z,1000.90
2019-03-16T11:19:17.336Z,1000.86
2019-03-16T11:20:17.294Z,1000.99
2019-03-16T11:21:17.277Z,1000.89
2019-03-16T11:22:17.263Z,1000.89
2019-03-16T11:23:17.270Z,1000.86
2019-03-16T11:24:17.243Z,1000.88
2019-03-16T11:25:17.230Z,1000.83
2019-03-16T11:26:17.220Z,1000.89
2019-03-16T11:27:17.488Z,1000.80
2019-03-16T11:28:17.200Z,1000.69
2019-03-16T11:29:17.204Z,1000.70
2019-03-16T11:30:17.179Z,1000.69
2019-03-16T11:31:17.170Z,1000.72
2019-03-16T11:32:17.156Z,1000.81
2019-03-16T11:33:17.144Z,1000.70
2019-03-16T11:34:17.137Z,1000.66
2019-03-16T11:35:17.146Z,1000.66
2019-03-16T11:36:17.112Z,1000.67
2019-03-16T11:37:17.105Z,1000.63
2019-03-16T11:38:17.091Z,1000.52
2019-03-16T11:39:17.080Z,1000.42
2019-03-16T11:40:17.129Z,1000.66
2019-03-16T11:41:17.071Z,1000.56
2019-03-16T11:42:17.142Z,1000.51
2019-03-16T11:43:17.037Z,1000.57
2019-03-16T11:44:17.029Z,1000.56
2019-03-16T11:45:17.628Z,1000.43
2019-03-16T11:46:17.006Z,1000.39
2019-03-16T11:47:17.014Z,1000.39
2019-03-16T11:48:16.985Z,1000.37
2019-03-16T11:49:16.987Z,1000.40
2019-03-16T11:50:16.976Z,1000.42
2019-03-16T11:51:16.954Z,1000.39
2019-03-16T11:52:16.940Z,1000.39
2019-03-16T11:53:16.948Z,1000.40
2019-03-16T11:54:16.920Z,1000.33
2019-03-16T11:55:16.908Z,1000.46
2019-03-16T11:56:18.385Z,1000.29
2019-03-16T11:57:16.891Z,1000.40
2019-03-16T11:58:16.878Z,1000.31
2019-03-16T11:59:21.433Z,1000.30
2019-03-16T12:00:17.862Z,1000.32
2019-03-16T12:01:16.844Z,1000.36
2019-03-16T12:02:16.834Z,1000.31
2019-03-16T12:03:16.823Z,1000.35
2019-03-16T12:04:16.814Z,1000.38
2019-03-16T12:05:16.822Z,1000.25